WAT577 CYQR-CYWG
Flight info
| Callsign | WAT577 |
|---|---|
| Flight time | 0h 52m |
| Altitude | 33000 |
| Route | ILUKI DCT DARUK DCT SEGAP BEFAN5 |
| Aircraft | B38M/M-SDE1FGHILORVWXY/HB1 |
Departure
| Time | 2026-04-17 22:00 |
|---|---|
| Airport | Regina International Airport (CYQR) |
Arrival
| Time | 2026-04-17 22:53 |
|---|---|
| Airport | Winnipeg / James Armstrong Richardson International Airport (CYWG) |
| Time | Latitude | Longitude | Altitude | Speed | Heading |
|---|---|---|---|---|---|
| 2026-04-17 21:43 | 50.43214 | -104.65552 | 1906 ft | 0 kts | 48° |
| 2026-04-17 21:51 | 50.43212 | -104.65556 | 1892 ft | 2 kts | 49° |
| 2026-04-17 21:51 | 50.43199 | -104.65579 | 1894 ft | 3 kts | 52° |
| 2026-04-17 21:51 | 50.43188 | -104.65604 | 1905 ft | 3 kts | 58° |
| 2026-04-17 21:52 | 50.43178 | -104.65632 | 1897 ft | 3 kts | 70° |
| 2026-04-17 21:52 | 50.43174 | -104.65661 | 1897 ft | 3 kts | 96° |
| 2026-04-17 21:52 | 50.43179 | -104.65682 | 1905 ft | 1 kts | 136° |
| 2026-04-17 21:52 | 50.43180 | -104.65684 | 1906 ft | 1 kts | 138° |
| 2026-04-17 21:57 | 50.43172 | -104.65673 | 1892 ft | 4 kts | 138° |
| 2026-04-17 21:57 | 50.43132 | -104.65616 | 1901 ft | 12 kts | 138° |
| 2026-04-17 21:57 | 50.43050 | -104.65500 | 1899 ft | 20 kts | 138° |
| 2026-04-17 21:58 | 50.42928 | -104.65328 | 1902 ft | 24 kts | 138° |
| 2026-04-17 21:58 | 50.42787 | -104.65129 | 1904 ft | 31 kts | 137° |
| 2026-04-17 21:58 | 50.42652 | -104.64935 | 1896 ft | 18 kts | 143° |
| 2026-04-17 21:58 | 50.42528 | -104.64889 | 1903 ft | 19 kts | 182° |
| 2026-04-17 21:59 | 50.42432 | -104.64992 | 1903 ft | 15 kts | 269° |
| 2026-04-17 21:59 | 50.42467 | -104.65055 | 1895 ft | 0 kts | 320° |
| 2026-04-17 21:59 | 50.42475 | -104.65065 | 1895 ft | 13 kts | 319° |
| 2026-04-17 21:59 | 50.42753 | -104.65460 | 1899 ft | 92 kts | 317° |
| 2026-04-17 22:00 | 50.43386 | -104.66364 | 1948 ft | 149 kts | 316° |
| 2026-04-17 22:00 | 50.44217 | -104.67528 | 2524 ft | 166 kts | 317° |
| 2026-04-17 22:00 | 50.45039 | -104.68688 | 3442 ft | 156 kts | 317° |
| 2026-04-17 22:00 | 50.45849 | -104.69887 | 3873 ft | 168 kts | 316° |
| 2026-04-17 22:01 | 50.46744 | -104.71215 | 4142 ft | 187 kts | 316° |
| 2026-04-17 22:01 | 50.47732 | -104.72683 | 4275 ft | 202 kts | 316° |
| 2026-04-17 22:01 | 50.48774 | -104.74218 | 4387 ft | 208 kts | 316° |
| 2026-04-17 22:01 | 50.49950 | -104.75559 | 4486 ft | 212 kts | 334° |
| 2026-04-17 22:02 | 50.51410 | -104.75975 | 4630 ft | 219 kts | 359° |
| 2026-04-17 22:02 | 50.52897 | -104.75319 | 4785 ft | 229 kts | 22° |
| 2026-04-17 22:02 | 50.54129 | -104.73670 | 4923 ft | 240 kts | 46° |
| 2026-04-17 22:02 | 50.54982 | -104.71370 | 5006 ft | 246 kts | 57° |
| 2026-04-17 22:03 | 50.55503 | -104.68787 | 4992 ft | 254 kts | 80° |
| 2026-04-17 22:03 | 50.55332 | -104.65999 | 5020 ft | 260 kts | 99° |
| 2026-04-17 22:03 | 50.54950 | -104.63254 | 5018 ft | 260 kts | 98° |
| 2026-04-17 22:03 | 50.54591 | -104.60458 | 5044 ft | 264 kts | 97° |
| 2026-04-17 22:04 | 50.54242 | -104.57604 | 5615 ft | 268 kts | 96° |
| 2026-04-17 22:04 | 50.53890 | -104.54643 | 6215 ft | 283 kts | 95° |
| 2026-04-17 22:04 | 50.53532 | -104.51581 | 7035 ft | 285 kts | 94° |
| 2026-04-17 22:04 | 50.53172 | -104.48506 | 7882 ft | 288 kts | 94° |
| 2026-04-17 22:05 | 50.52809 | -104.45394 | 8776 ft | 290 kts | 94° |
| 2026-04-17 22:05 | 50.52443 | -104.42252 | 9652 ft | 294 kts | 94° |
| 2026-04-17 22:05 | 50.52072 | -104.39064 | 10388 ft | 301 kts | 94° |
| 2026-04-17 22:05 | 50.51688 | -104.35737 | 10715 ft | 320 kts | 94° |
| 2026-04-17 22:06 | 50.51281 | -104.32208 | 11073 ft | 336 kts | 95° |
| 2026-04-17 22:06 | 50.50854 | -104.28564 | 11735 ft | 341 kts | 95° |
| 2026-04-17 22:06 | 50.50421 | -104.24885 | 12491 ft | 344 kts | 96° |
| 2026-04-17 22:06 | 50.49981 | -104.21164 | 13259 ft | 349 kts | 96° |
| 2026-04-17 22:07 | 50.49535 | -104.17398 | 14024 ft | 353 kts | 96° |
| 2026-04-17 22:07 | 50.49083 | -104.13596 | 14717 ft | 357 kts | 96° |
| 2026-04-17 22:07 | 50.48623 | -104.09737 | 15410 ft | 362 kts | 96° |
| 2026-04-17 22:07 | 50.48157 | -104.05832 | 16117 ft | 366 kts | 97° |
| 2026-04-17 22:08 | 50.47682 | -104.01877 | 16833 ft | 371 kts | 97° |
| 2026-04-17 22:08 | 50.47200 | -103.97866 | 17535 ft | 375 kts | 97° |
| 2026-04-17 22:08 | 50.46718 | -103.93871 | 18219 ft | 380 kts | 97° |
| 2026-04-17 22:08 | 50.46222 | -103.89777 | 18827 ft | 384 kts | 97° |
| 2026-04-17 22:09 | 50.45720 | -103.85646 | 19430 ft | 387 kts | 97° |
| 2026-04-17 22:09 | 50.45212 | -103.81476 | 20017 ft | 391 kts | 97° |
| 2026-04-17 22:09 | 50.44699 | -103.77271 | 20602 ft | 394 kts | 97° |
| 2026-04-17 22:09 | 50.44179 | -103.73033 | 21193 ft | 398 kts | 97° |
| 2026-04-17 22:10 | 50.43652 | -103.68756 | 21746 ft | 401 kts | 97° |
| 2026-04-17 22:10 | 50.43120 | -103.64440 | 22310 ft | 405 kts | 97° |
| 2026-04-17 22:10 | 50.42582 | -103.60092 | 22863 ft | 408 kts | 97° |
| 2026-04-17 22:10 | 50.42037 | -103.55705 | 23404 ft | 412 kts | 97° |
| 2026-04-17 22:11 | 50.41484 | -103.51276 | 23874 ft | 416 kts | 98° |
| 2026-04-17 22:11 | 50.40925 | -103.46804 | 24292 ft | 419 kts | 98° |
| 2026-04-17 22:11 | 50.40359 | -103.42295 | 24723 ft | 423 kts | 99° |
| 2026-04-17 22:11 | 50.39787 | -103.37758 | 25151 ft | 426 kts | 99° |
| 2026-04-17 22:12 | 50.39212 | -103.33201 | 25547 ft | 429 kts | 100° |
| 2026-04-17 22:12 | 50.38627 | -103.28587 | 25942 ft | 433 kts | 100° |
| 2026-04-17 22:12 | 50.38038 | -103.23949 | 26338 ft | 436 kts | 101° |
| 2026-04-17 22:12 | 50.37441 | -103.19269 | 26715 ft | 439 kts | 101° |
| 2026-04-17 22:13 | 50.36839 | -103.14567 | 27100 ft | 442 kts | 102° |
| 2026-04-17 22:13 | 50.36230 | -103.09832 | 27491 ft | 445 kts | 102° |
| 2026-04-17 22:13 | 50.35615 | -103.05054 | 27871 ft | 448 kts | 102° |
| 2026-04-17 22:13 | 50.34995 | -103.00262 | 28230 ft | 451 kts | 102° |
| 2026-04-17 22:14 | 50.34376 | -102.95491 | 28578 ft | 454 kts | 103° |
| 2026-04-17 22:14 | 50.33744 | -102.90642 | 28934 ft | 457 kts | 103° |
| 2026-04-17 22:14 | 50.33105 | -102.85751 | 29276 ft | 460 kts | 103° |
| 2026-04-17 22:14 | 50.32451 | -102.80764 | 29611 ft | 463 kts | 104° |
| 2026-04-17 22:15 | 50.31800 | -102.75823 | 29953 ft | 466 kts | 104° |
| 2026-04-17 22:15 | 50.31151 | -102.70904 | 30234 ft | 469 kts | 104° |
| 2026-04-17 22:15 | 50.30488 | -102.65900 | 30498 ft | 471 kts | 104° |
| 2026-04-17 22:15 | 50.29819 | -102.60870 | 30762 ft | 473 kts | 104° |
| 2026-04-17 22:16 | 50.29145 | -102.55822 | 31027 ft | 476 kts | 105° |
| 2026-04-17 22:16 | 50.28465 | -102.50745 | 31292 ft | 478 kts | 105° |
| 2026-04-17 22:16 | 50.27780 | -102.45647 | 31554 ft | 480 kts | 105° |
| 2026-04-17 22:16 | 50.27089 | -102.40527 | 31806 ft | 482 kts | 105° |
| 2026-04-17 22:17 | 50.26393 | -102.35385 | 32069 ft | 484 kts | 105° |
| 2026-04-17 22:17 | 50.25693 | -102.30228 | 32325 ft | 487 kts | 105° |
| 2026-04-17 22:17 | 50.24987 | -102.25056 | 32650 ft | 487 kts | 105° |
| 2026-04-17 22:17 | 50.24277 | -102.19871 | 32953 ft | 487 kts | 105° |
| 2026-04-17 22:18 | 50.23565 | -102.14688 | 33025 ft | 488 kts | 106° |
| 2026-04-17 22:18 | 50.22140 | -102.04362 | 33005 ft | 486 kts | 106° |
| 2026-04-17 22:19 | 50.20715 | -101.94116 | 32992 ft | 486 kts | 106° |
| 2026-04-17 22:19 | 50.19270 | -101.83790 | 32996 ft | 487 kts | 107° |
| 2026-04-17 22:20 | 50.17814 | -101.73470 | 32984 ft | 487 kts | 107° |
| 2026-04-17 22:20 | 50.16347 | -101.63133 | 32987 ft | 487 kts | 107° |
| 2026-04-17 22:21 | 50.14872 | -101.52814 | 32978 ft | 487 kts | 107° |
| 2026-04-17 22:21 | 50.13387 | -101.42492 | 32980 ft | 488 kts | 107° |
| 2026-04-17 22:22 | 50.11892 | -101.32174 | 32973 ft | 488 kts | 108° |
| 2026-04-17 22:22 | 50.10390 | -101.21871 | 32977 ft | 488 kts | 108° |
| 2026-04-17 22:23 | 50.08878 | -101.11572 | 32969 ft | 488 kts | 108° |
| 2026-04-17 22:23 | 50.07367 | -101.01342 | 32967 ft | 488 kts | 108° |
| 2026-04-17 22:24 | 50.05836 | -100.91062 | 32963 ft | 488 kts | 108° |
| 2026-04-17 22:24 | 50.04295 | -100.80771 | 32967 ft | 488 kts | 109° |
| 2026-04-17 22:25 | 50.02748 | -100.70506 | 32955 ft | 488 kts | 109° |
| 2026-04-17 22:25 | 50.01189 | -100.60230 | 32960 ft | 488 kts | 109° |
| 2026-04-17 22:26 | 49.99621 | -100.49960 | 32947 ft | 488 kts | 109° |
| 2026-04-17 22:26 | 49.98043 | -100.39693 | 32932 ft | 489 kts | 109° |
| 2026-04-17 22:27 | 49.96455 | -100.29424 | 32891 ft | 489 kts | 110° |
| 2026-04-17 22:27 | 49.94874 | -100.19252 | 32864 ft | 471 kts | 110° |
| 2026-04-17 22:27 | 49.94107 | -100.14352 | 32500 ft | 464 kts | 110° |
| 2026-04-17 22:28 | 49.93353 | -100.09552 | 31897 ft | 463 kts | 110° |
| 2026-04-17 22:28 | 49.92590 | -100.04706 | 31345 ft | 462 kts | 111° |
| 2026-04-17 22:28 | 49.91830 | -99.99885 | 30871 ft | 458 kts | 111° |
| 2026-04-17 22:28 | 49.91085 | -99.95089 | 30351 ft | 458 kts | 108° |
| 2026-04-17 22:29 | 49.90760 | -99.90102 | 29724 ft | 467 kts | 99° |
| 2026-04-17 22:29 | 49.90559 | -99.85118 | 29290 ft | 460 kts | 101° |
| 2026-04-17 22:29 | 49.90332 | -99.80200 | 28839 ft | 455 kts | 101° |
| 2026-04-17 22:29 | 49.90106 | -99.75350 | 28361 ft | 445 kts | 101° |
| 2026-04-17 22:30 | 49.89885 | -99.70644 | 27957 ft | 431 kts | 101° |
| 2026-04-17 22:30 | 49.89668 | -99.66078 | 27542 ft | 419 kts | 101° |
| 2026-04-17 22:30 | 49.89455 | -99.61631 | 27139 ft | 408 kts | 102° |
| 2026-04-17 22:30 | 49.89245 | -99.57291 | 26725 ft | 403 kts | 102° |
| 2026-04-17 22:31 | 49.89031 | -99.52907 | 26304 ft | 410 kts | 102° |
| 2026-04-17 22:31 | 49.88816 | -99.48520 | 25920 ft | 414 kts | 102° |
| 2026-04-17 22:31 | 49.88597 | -99.44080 | 25540 ft | 412 kts | 102° |
| 2026-04-17 22:31 | 49.88374 | -99.39613 | 25134 ft | 410 kts | 102° |
| 2026-04-17 22:32 | 49.88229 | -99.36694 | 24866 ft | 408 kts | 102° |
| 2026-04-17 22:32 | 49.87937 | -99.30919 | 24371 ft | 404 kts | 103° |
| 2026-04-17 22:32 | 49.87716 | -99.26588 | 23995 ft | 401 kts | 103° |
| 2026-04-17 22:32 | 49.87496 | -99.22289 | 23606 ft | 398 kts | 103° |
| 2026-04-17 22:33 | 49.87276 | -99.18023 | 23185 ft | 395 kts | 103° |
| 2026-04-17 22:33 | 49.87130 | -99.15214 | 22922 ft | 394 kts | 103° |
| 2026-04-17 22:33 | 49.86907 | -99.10944 | 22550 ft | 391 kts | 103° |
| 2026-04-17 22:33 | 49.86689 | -99.06803 | 22217 ft | 390 kts | 102° |
| 2026-04-17 22:34 | 49.86468 | -99.02620 | 21828 ft | 388 kts | 102° |
| 2026-04-17 22:34 | 49.86246 | -98.98469 | 21481 ft | 386 kts | 102° |
| 2026-04-17 22:34 | 49.86024 | -98.94339 | 21126 ft | 384 kts | 102° |
| 2026-04-17 22:34 | 49.85802 | -98.90232 | 20766 ft | 381 kts | 102° |
| 2026-04-17 22:35 | 49.85580 | -98.86144 | 20416 ft | 379 kts | 102° |
| 2026-04-17 22:35 | 49.85357 | -98.82084 | 20069 ft | 377 kts | 102° |
| 2026-04-17 22:35 | 49.85135 | -98.78046 | 19718 ft | 375 kts | 102° |
| 2026-04-17 22:35 | 49.84911 | -98.74026 | 19369 ft | 373 kts | 102° |
| 2026-04-17 22:36 | 49.84689 | -98.70038 | 19016 ft | 371 kts | 102° |
| 2026-04-17 22:36 | 49.84466 | -98.66061 | 18671 ft | 369 kts | 102° |
| 2026-04-17 22:36 | 49.84242 | -98.62112 | 18326 ft | 367 kts | 102° |
| 2026-04-17 22:36 | 49.84019 | -98.58192 | 17955 ft | 365 kts | 102° |
| 2026-04-17 22:37 | 49.83796 | -98.54283 | 17643 ft | 363 kts | 102° |
| 2026-04-17 22:37 | 49.83572 | -98.50401 | 17371 ft | 362 kts | 102° |
| 2026-04-17 22:37 | 49.83350 | -98.46575 | 17037 ft | 360 kts | 102° |
| 2026-04-17 22:37 | 49.83126 | -98.42717 | 16707 ft | 359 kts | 102° |
| 2026-04-17 22:38 | 49.82901 | -98.38879 | 16358 ft | 357 kts | 102° |
| 2026-04-17 22:38 | 49.82676 | -98.35053 | 16030 ft | 355 kts | 102° |
| 2026-04-17 22:38 | 49.82451 | -98.31264 | 15698 ft | 353 kts | 101° |
| 2026-04-17 22:38 | 49.82226 | -98.27479 | 15355 ft | 351 kts | 101° |
| 2026-04-17 22:39 | 49.82002 | -98.23732 | 15029 ft | 349 kts | 101° |
| 2026-04-17 22:39 | 49.81776 | -98.19990 | 14709 ft | 347 kts | 101° |
| 2026-04-17 22:39 | 49.81327 | -98.12578 | 14065 ft | 343 kts | 101° |
| 2026-04-17 22:40 | 49.81103 | -98.08897 | 13737 ft | 341 kts | 101° |
| 2026-04-17 22:40 | 49.80880 | -98.05255 | 13385 ft | 339 kts | 101° |
| 2026-04-17 22:40 | 49.80660 | -98.01681 | 13092 ft | 336 kts | 101° |
| 2026-04-17 22:40 | 49.80452 | -97.98105 | 12883 ft | 332 kts | 99° |
| 2026-04-17 22:41 | 49.80281 | -97.94566 | 12507 ft | 327 kts | 99° |
| 2026-04-17 22:41 | 49.80109 | -97.91057 | 12170 ft | 326 kts | 99° |
| 2026-04-17 22:41 | 49.79935 | -97.87565 | 11818 ft | 324 kts | 99° |
| 2026-04-17 22:41 | 49.79761 | -97.84093 | 11452 ft | 322 kts | 99° |
| 2026-04-17 22:42 | 49.79588 | -97.80644 | 11068 ft | 320 kts | 98° |
| 2026-04-17 22:42 | 49.79419 | -97.77225 | 10524 ft | 318 kts | 98° |
| 2026-04-17 22:42 | 49.79249 | -97.73813 | 9936 ft | 318 kts | 97° |
| 2026-04-17 22:42 | 49.79076 | -97.70406 | 9309 ft | 317 kts | 97° |
| 2026-04-17 22:43 | 49.78904 | -97.67018 | 8672 ft | 315 kts | 97° |
| 2026-04-17 22:43 | 49.78823 | -97.65416 | 8378 ft | 314 kts | 97° |
| 2026-04-17 22:43 | 49.78651 | -97.62053 | 7811 ft | 311 kts | 97° |
| 2026-04-17 22:44 | 49.78487 | -97.58868 | 7436 ft | 301 kts | 97° |
| 2026-04-17 22:44 | 49.78313 | -97.55674 | 7149 ft | 296 kts | 99° |
| 2026-04-17 22:44 | 49.78103 | -97.52513 | 6809 ft | 294 kts | 99° |
| 2026-04-17 22:44 | 49.77896 | -97.49409 | 6522 ft | 285 kts | 99° |
| 2026-04-17 22:45 | 49.77698 | -97.46424 | 6280 ft | 271 kts | 99° |
| 2026-04-17 22:45 | 49.77513 | -97.43619 | 6156 ft | 254 kts | 100° |
| 2026-04-17 22:45 | 49.77339 | -97.40986 | 6017 ft | 238 kts | 100° |
| 2026-04-17 22:45 | 49.77177 | -97.38557 | 5900 ft | 223 kts | 101° |
| 2026-04-17 22:46 | 49.77022 | -97.36243 | 5768 ft | 208 kts | 101° |
| 2026-04-17 22:46 | 49.76877 | -97.34065 | 5646 ft | 196 kts | 102° |
| 2026-04-17 22:46 | 49.76734 | -97.31959 | 5572 ft | 203 kts | 101° |
| 2026-04-17 22:46 | 49.76605 | -97.29849 | 5563 ft | 193 kts | 98° |
| 2026-04-17 22:47 | 49.76571 | -97.27772 | 5343 ft | 192 kts | 97° |
| 2026-04-17 22:47 | 49.76542 | -97.25715 | 5061 ft | 191 kts | 97° |
| 2026-04-17 22:47 | 49.76509 | -97.23677 | 4794 ft | 187 kts | 97° |
| 2026-04-17 22:47 | 49.76474 | -97.21697 | 4540 ft | 182 kts | 96° |
| 2026-04-17 22:48 | 49.76441 | -97.19764 | 4302 ft | 177 kts | 95° |
| 2026-04-17 22:48 | 49.76533 | -97.17883 | 4047 ft | 175 kts | 83° |
| 2026-04-17 22:48 | 49.76902 | -97.16108 | 3781 ft | 174 kts | 67° |
| 2026-04-17 22:48 | 49.77584 | -97.14584 | 3560 ft | 172 kts | 49° |
| 2026-04-17 22:49 | 49.78528 | -97.13465 | 3319 ft | 170 kts | 33° |
| 2026-04-17 22:49 | 49.79628 | -97.12815 | 3089 ft | 169 kts | 17° |
| 2026-04-17 22:49 | 49.80792 | -97.12656 | 2859 ft | 167 kts | 2° |
| 2026-04-17 22:49 | 49.81895 | -97.12972 | 2636 ft | 157 kts | 346° |
| 2026-04-17 22:50 | 49.82860 | -97.13693 | 2454 ft | 154 kts | 332° |
| 2026-04-17 22:50 | 49.83671 | -97.14733 | 2327 ft | 147 kts | 322° |
| 2026-04-17 22:50 | 49.84407 | -97.15795 | 2103 ft | 141 kts | 324° |
| 2026-04-17 22:50 | 49.85128 | -97.16784 | 1960 ft | 138 kts | 325° |
| 2026-04-17 22:51 | 49.85849 | -97.17770 | 1951 ft | 138 kts | 324° |
| 2026-04-17 22:51 | 49.86573 | -97.18766 | 1864 ft | 139 kts | 324° |
| 2026-04-17 22:51 | 49.87287 | -97.19764 | 1524 ft | 137 kts | 323° |
| 2026-04-17 22:51 | 49.88009 | -97.20704 | 1202 ft | 133 kts | 321° |
| 2026-04-17 22:52 | 49.88695 | -97.21634 | 1005 ft | 130 kts | 315° |
| 2026-04-17 22:52 | 49.89359 | -97.22579 | 848 ft | 132 kts | 317° |
| 2026-04-17 22:52 | 49.90038 | -97.23501 | 790 ft | 120 kts | 318° |
| 2026-04-17 22:52 | 49.90493 | -97.24126 | 790 ft | 62 kts | 318° |
| 2026-04-17 22:53 | 49.90688 | -97.24351 | 791 ft | 22 kts | 2° |
| 2026-04-17 22:53 | 49.90753 | -97.24178 | 789 ft | 20 kts | 79° |
| 2026-04-17 22:53 | 49.90780 | -97.23968 | 791 ft | 20 kts | 78° |
| 2026-04-17 22:53 | 49.90810 | -97.23746 | 789 ft | 22 kts | 77° |
| 2026-04-17 22:54 | 49.90842 | -97.23503 | 789 ft | 24 kts | 79° |
| 2026-04-17 22:54 | 49.90795 | -97.23309 | 789 ft | 20 kts | 148° |
| 2026-04-17 22:54 | 49.90686 | -97.23196 | 789 ft | 12 kts | 128° |
| 2026-04-17 22:54 | 49.90688 | -97.23104 | 789 ft | 8 kts | 77° |
| 2026-04-17 22:55 | 49.90702 | -97.23005 | 789 ft | 11 kts | 78° |
| 2026-04-17 22:55 | 49.90720 | -97.22872 | 789 ft | 8 kts | 79° |
| 2026-04-17 22:55 | 49.90725 | -97.22784 | 789 ft | 4 kts | 102° |
| 2026-04-17 22:55 | 49.90698 | -97.22758 | 789 ft | 5 kts | 157° |
| 2026-04-17 22:56 | 49.90662 | -97.22737 | 789 ft | 2 kts | 158° |
| 2026-04-17 22:56 | 49.90651 | -97.22730 | 789 ft | 2 kts | 158° |